sensor_id;sensor_type;location;lat;lon;timestamp;temperature;humidity
16846;DHT22;8539;53.188;8.696;2022-11-13T00:02:23;5.40;99.90
16846;DHT22;8539;53.188;8.696;2022-11-13T00:04:49;5.40;99.90
16846;DHT22;8539;53.188;8.696;2022-11-13T00:07:15;5.40;99.90
16846;DHT22;8539;53.188;8.696;2022-11-13T00:09:42;5.40;99.90
16846;DHT22;8539;53.188;8.696;2022-11-13T00:12:13;5.40;99.90
16846;DHT22;8539;53.188;8.696;2022-11-13T00:14:48;5.90;99.90
16846;DHT22;8539;53.188;8.696;2022-11-13T00:17:17;5.40;99.90
16846;DHT22;8539;53.188;8.696;2022-11-13T00:19:43;6.10;99.90
16846;DHT22;8539;53.188;8.696;2022-11-13T00:22:30;5.90;99.90
16846;DHT22;8539;53.188;8.696;2022-11-13T00:24:56;5.40;99.90
16846;DHT22;8539;53.188;8.696;2022-11-13T00:27:22;6.40;99.90
16846;DHT22;8539;53.188;8.696;2022-11-13T00:29:48;5.90;99.90
16846;DHT22;8539;53.188;8.696;2022-11-13T00:32:14;5.80;99.90
16846;DHT22;8539;53.188;8.696;2022-11-13T00:34:50;5.40;99.90
16846;DHT22;8539;53.188;8.696;2022-11-13T00:37:42;5.40;99.90
16846;DHT22;8539;53.188;8.696;2022-11-13T00:40:16;5.70;99.90
16846;DHT22;8539;53.188;8.696;2022-11-13T00:42:42;5.30;99.90
16846;DHT22;8539;53.188;8.696;2022-11-13T00:45:11;5.30;99.90
16846;DHT22;8539;53.188;8.696;2022-11-13T00:54:45;5.10;99.90
16846;DHT22;8539;53.188;8.696;2022-11-13T00:57:11;5.10;99.90
16846;DHT22;8539;53.188;8.696;2022-11-13T00:59:37;5.10;99.90
16846;DHT22;8539;53.188;8.696;2022-11-13T01:02:06;5.20;99.90
16846;DHT22;8539;53.188;8.696;2022-11-13T01:04:32;5.10;99.90
16846;DHT22;8539;53.188;8.696;2022-11-13T01:06:58;5.10;99.90
16846;DHT22;8539;53.188;8.696;2022-11-13T01:09:24;5.10;99.90
16846;DHT22;8539;53.188;8.696;2022-11-13T01:11:51;5.10;99.90
16846;DHT22;8539;53.188;8.696;2022-11-13T01:14:26;5.20;99.90
16846;DHT22;8539;53.188;8.696;2022-11-13T01:16:52;5.10;99.90
16846;DHT22;8539;53.188;8.696;2022-11-13T01:19:18;5.20;99.90
16846;DHT22;8539;53.188;8.696;2022-11-13T01:21:44;5.20;99.90
16846;DHT22;8539;53.188;8.696;2022-11-13T01:24:10;5.30;99.90
16846;DHT22;8539;53.188;8.696;2022-11-13T01:26:48;5.40;99.90
16846;DHT22;8539;53.188;8.696;2022-11-13T01:29:15;5.20;99.90
16846;DHT22;8539;53.188;8.696;2022-11-13T01:31:40;5.40;99.90
16846;DHT22;8539;53.188;8.696;2022-11-13T01:34:07;5.50;99.90
16846;DHT22;8539;53.188;8.696;2022-11-13T01:36:32;5.50;99.90
16846;DHT22;8539;53.188;8.696;2022-11-13T01:38:59;5.50;99.90
16846;DHT22;8539;53.188;8.696;2022-11-13T01:41:28;5.50;99.90
16846;DHT22;8539;53.188;8.696;2022-11-13T01:43:55;5.50;99.90
16846;DHT22;8539;53.188;8.696;2022-11-13T01:46:26;5.50;99.90
16846;DHT22;8539;53.188;8.696;2022-11-13T01:51:33;5.50;99.90
16846;DHT22;8539;53.188;8.696;2022-11-13T01:54:06;5.60;99.90
16846;DHT22;8539;53.188;8.696;2022-11-13T01:56:33;5.50;99.90
16846;DHT22;8539;53.188;8.696;2022-11-13T01:59:09;5.50;99.90
16846;DHT22;8539;53.188;8.696;2022-11-13T02:01:36;5.50;99.90
16846;DHT22;8539;53.188;8.696;2022-11-13T02:04:02;5.50;99.90
16846;DHT22;8539;53.188;8.696;2022-11-13T02:06:53;5.50;99.90
16846;DHT22;8539;53.188;8.696;2022-11-13T02:09:30;5.50;99.90
16846;DHT22;8539;53.188;8.696;2022-11-13T02:11:58;5.50;99.90
16846;DHT22;8539;53.188;8.696;2022-11-13T02:14:27;5.50;99.90
16846;DHT22;8539;53.188;8.696;2022-11-13T02:16:59;5.50;99.90
16846;DHT22;8539;53.188;8.696;2022-11-13T02:19:33;5.60;99.90
16846;DHT22;8539;53.188;8.696;2022-11-13T02:22:18;5.50;99.90
16846;DHT22;8539;53.188;8.696;2022-11-13T02:24:46;5.50;99.90
16846;DHT22;8539;53.188;8.696;2022-11-13T02:27:54;5.50;99.90
16846;DHT22;8539;53.188;8.696;2022-11-13T02:30:29;5.50;99.90
16846;DHT22;8539;53.188;8.696;2022-11-13T02:33:00;5.60;99.90
16846;DHT22;8539;53.188;8.696;2022-11-13T02:35:32;5.40;99.90
16846;DHT22;8539;53.188;8.696;2022-11-13T02:38:04;6.10;99.90
16846;DHT22;8539;53.188;8.696;2022-11-13T02:40:34;5.30;99.90
16846;DHT22;8539;53.188;8.696;2022-11-13T02:43:02;5.30;99.90
16846;DHT22;8539;53.188;8.696;2022-11-13T02:50:42;5.30;99.90
16846;DHT22;8539;53.188;8.696;2022-11-13T02:53:10;5.50;99.90
16846;DHT22;8539;53.188;8.696;2022-11-13T02:55:36;5.30;99.90
16846;DHT22;8539;53.188;8.696;2022-11-13T02:58:02;5.50;99.90
16846;DHT22;8539;53.188;8.696;2022-11-13T03:00:28;5.30;99.90
16846;DHT22;8539;53.188;8.696;2022-11-13T03:02:54;5.30;99.90
16846;DHT22;8539;53.188;8.696;2022-11-13T03:05:21;5.40;99.90
16846;DHT22;8539;53.188;8.696;2022-11-13T03:07:47;5.40;99.90
16846;DHT22;8539;53.188;8.696;2022-11-13T03:10:13;5.30;99.90
16846;DHT22;8539;53.188;8.696;2022-11-13T03:12:41;5.30;99.90
16846;DHT22;8539;53.188;8.696;2022-11-13T03:15:08;5.30;99.90
16846;DHT22;8539;53.188;8.696;2022-11-13T03:17:35;5.30;99.90
16846;DHT22;8539;53.188;8.696;2022-11-13T03:20:03;5.40;99.90
16846;DHT22;8539;53.188;8.696;2022-11-13T03:22:29;5.20;99.90
16846;DHT22;8539;53.188;8.696;2022-11-13T03:24:55;5.20;99.90
16846;DHT22;8539;53.188;8.696;2022-11-13T03:27:22;5.30;99.90
16846;DHT22;8539;53.188;8.696;2022-11-13T03:29:48;5.20;99.90
16846;DHT22;8539;53.188;8.696;2022-11-13T03:32:14;5.20;99.90
16846;DHT22;8539;53.188;8.696;2022-11-13T03:34:41;5.20;99.90
16846;DHT22;8539;53.188;8.696;2022-11-13T03:37:07;5.20;99.90
16846;DHT22;8539;53.188;8.696;2022-11-13T03:39:33;5.10;99.90
16846;DHT22;8539;53.188;8.696;2022-11-13T03:42:00;5.10;99.90
16846;DHT22;8539;53.188;8.696;2022-11-13T03:44:29;5.10;99.90
16846;DHT22;8539;53.188;8.696;2022-11-13T03:47:00;4.80;99.90
16846;DHT22;8539;53.188;8.696;2022-11-13T03:49:28;5.00;99.90
16846;DHT22;8539;53.188;8.696;2022-11-13T03:52:09;5.00;99.90
16846;DHT22;8539;53.188;8.696;2022-11-13T03:54:36;4.70;99.90
16846;DHT22;8539;53.188;8.696;2022-11-13T03:57:05;4.60;99.90
16846;DHT22;8539;53.188;8.696;2022-11-13T03:59:31;5.00;99.90
16846;DHT22;8539;53.188;8.696;2022-11-13T04:02:00;5.10;99.90
16846;DHT22;8539;53.188;8.696;2022-11-13T04:04:26;5.00;99.90
16846;DHT22;8539;53.188;8.696;2022-11-13T04:06:52;4.90;99.90
16846;DHT22;8539;53.188;8.696;2022-11-13T04:09:18;4.90;99.90
16846;DHT22;8539;53.188;8.696;2022-11-13T04:14:23;4.90;99.90
16846;DHT22;8539;53.188;8.696;2022-11-13T04:16:52;5.10;99.90
16846;DHT22;8539;53.188;8.696;2022-11-13T04:19:18;4.90;99.90
16846;DHT22;8539;53.188;8.696;2022-11-13T04:21:44;4.90;99.90
16846;DHT22;8539;53.188;8.696;2022-11-13T04:24:10;4.90;99.90
16846;DHT22;8539;53.188;8.696;2022-11-13T07:54:08;4.80;99.90
16846;DHT22;8539;53.188;8.696;2022-11-13T07:56:37;5.70;99.90
16846;DHT22;8539;53.188;8.696;2022-11-13T07:59:05;5.20;99.90
16846;DHT22;8539;53.188;8.696;2022-11-13T08:01:32;4.90;99.90
16846;DHT22;8539;53.188;8.696;2022-11-13T08:03:59;5.00;99.90
16846;DHT22;8539;53.188;8.696;2022-11-13T08:06:26;3.70;99.90
16846;DHT22;8539;53.188;8.696;2022-11-13T08:20:06;5.40;99.90
16846;DHT22;8539;53.188;8.696;2022-11-13T08:22:33;5.40;99.90
16846;DHT22;8539;53.188;8.696;2022-11-13T08:25:07;5.60;99.90
16846;DHT22;8539;53.188;8.696;2022-11-13T08:28:22;5.60;99.90
16846;DHT22;8539;53.188;8.696;2022-11-13T08:30:50;5.70;99.90
16846;DHT22;8539;53.188;8.696;2022-11-13T08:33:18;6.50;99.90
16846;DHT22;8539;53.188;8.696;2022-11-13T08:35:54;5.90;99.90
16846;DHT22;8539;53.188;8.696;2022-11-13T08:38:20;5.90;99.90
16846;DHT22;8539;53.188;8.696;2022-11-13T08:41:02;6.20;99.90
16846;DHT22;8539;53.188;8.696;2022-11-13T08:43:30;5.90;99.90
16846;DHT22;8539;53.188;8.696;2022-11-13T08:49:25;6.20;99.90
16846;DHT22;8539;53.188;8.696;2022-11-13T08:51:57;6.30;99.90
16846;DHT22;8539;53.188;8.696;2022-11-13T08:59:13;6.60;99.90
16846;DHT22;8539;53.188;8.696;2022-11-13T09:07:12;6.90;99.90
16846;DHT22;8539;53.188;8.696;2022-11-13T09:09:40;6.90;99.90
16846;DHT22;8539;53.188;8.696;2022-11-13T09:12:06;7.10;99.90
16846;DHT22;8539;53.188;8.696;2022-11-13T09:14:32;7.10;99.90
16846;DHT22;8539;53.188;8.696;2022-11-13T09:16:58;7.20;99.90
16846;DHT22;8539;53.188;8.696;2022-11-13T09:19:24;7.30;99.90
16846;DHT22;8539;53.188;8.696;2022-11-13T09:21:51;7.40;99.90
16846;DHT22;8539;53.188;8.696;2022-11-13T09:24:19;7.40;99.90
16846;DHT22;8539;53.188;8.696;2022-11-13T09:26:45;7.50;99.90
16846;DHT22;8539;53.188;8.696;2022-11-13T09:29:15;7.50;99.90
16846;DHT22;8539;53.188;8.696;2022-11-13T09:31:41;7.60;99.90
16846;DHT22;8539;53.188;8.696;2022-11-13T09:34:08;7.60;99.90
16846;DHT22;8539;53.188;8.696;2022-11-13T09:36:36;7.60;99.90
16846;DHT22;8539;53.188;8.696;2022-11-13T09:39:03;7.70;99.90
16846;DHT22;8539;53.188;8.696;2022-11-13T09:41:56;7.10;99.90
16846;DHT22;8539;53.188;8.696;2022-11-13T09:44:32;7.80;99.90
16846;DHT22;8539;53.188;8.696;2022-11-13T09:47:09;7.90;99.90
16846;DHT22;8539;53.188;8.696;2022-11-13T09:49:47;7.90;99.90
16846;DHT22;8539;53.188;8.696;2022-11-13T09:52:40;8.00;99.90
16846;DHT22;8539;53.188;8.696;2022-11-13T09:55:18;8.20;99.90
16846;DHT22;8539;53.188;8.696;2022-11-13T10:00:20;8.50;99.90
16846;DHT22;8539;53.188;8.696;2022-11-13T10:08:13;9.40;99.90
16846;DHT22;8539;53.188;8.696;2022-11-13T10:10:47;10.00;99.90
16846;DHT22;8539;53.188;8.696;2022-11-13T10:13:26;10.50;99.90
16846;DHT22;8539;53.188;8.696;2022-11-13T10:24:21;10.90;99.90
16846;DHT22;8539;53.188;8.696;2022-11-13T10:32:30;11.20;99.90
16846;DHT22;8539;53.188;8.696;2022-11-13T10:43:59;10.50;99.90
16846;DHT22;8539;53.188;8.696;2022-11-13T10:46:28;10.60;99.90
16846;DHT22;8539;53.188;8.696;2022-11-13T10:49:25;10.80;99.90
16846;DHT22;8539;53.188;8.696;2022-11-13T10:51:59;10.70;99.90
16846;DHT22;8539;53.188;8.696;2022-11-13T10:57:13;10.70;99.90
16846;DHT22;8539;53.188;8.696;2022-11-13T10:59:49;10.80;99.90
16846;DHT22;8539;53.188;8.696;2022-11-13T11:02:20;11.00;99.90
16846;DHT22;8539;53.188;8.696;2022-11-13T11:05:05;11.00;99.90
16846;DHT22;8539;53.188;8.696;2022-11-13T11:07:39;11.30;99.90
16846;DHT22;8539;53.188;8.696;2022-11-13T11:13:21;12.20;99.90
16846;DHT22;8539;53.188;8.696;2022-11-13T11:16:10;12.60;99.90
16846;DHT22;8539;53.188;8.696;2022-11-13T11:19:00;13.00;99.90
16846;DHT22;8539;53.188;8.696;2022-11-13T11:21:33;13.40;99.90
16846;DHT22;8539;53.188;8.696;2022-11-13T11:27:00;13.50;99.90
16846;DHT22;8539;53.188;8.696;2022-11-13T11:30:07;13.40;99.90
16846;DHT22;8539;53.188;8.696;2022-11-13T11:39:24;14.00;99.90
16846;DHT22;8539;53.188;8.696;2022-11-13T11:45:25;14.60;99.90
16846;DHT22;8539;53.188;8.696;2022-11-13T11:47:56;15.40;99.90
16846;DHT22;8539;53.188;8.696;2022-11-13T11:50:34;15.70;99.90
16846;DHT22;8539;53.188;8.696;2022-11-13T11:53:27;15.90;99.90
16846;DHT22;8539;53.188;8.696;2022-11-13T11:56:30;15.90;99.90
16846;DHT22;8539;53.188;8.696;2022-11-13T12:11:41;13.40;99.90
16846;DHT22;8539;53.188;8.696;2022-11-13T12:18:04;13.00;99.90
16846;DHT22;8539;53.188;8.696;2022-11-13T12:26:04;12.80;99.90
16846;DHT22;8539;53.188;8.696;2022-11-13T12:36:33;13.50;99.90
16846;DHT22;8539;53.188;8.696;2022-11-13T12:42:38;13.70;99.90
16846;DHT22;8539;53.188;8.696;2022-11-13T12:47:34;13.70;99.90
16846;DHT22;8539;53.188;8.696;2022-11-13T12:50:05;13.80;99.90
16846;DHT22;8539;53.188;8.696;2022-11-13T12:52:31;14.00;99.90
16846;DHT22;8539;53.188;8.696;2022-11-13T12:55:07;14.10;99.90
16846;DHT22;8539;53.188;8.696;2022-11-13T12:57:34;14.40;99.90
16846;DHT22;8539;53.188;8.696;2022-11-13T13:00:21;14.60;99.90
16846;DHT22;8539;53.188;8.696;2022-11-13T13:03:20;15.10;99.90
16846;DHT22;8539;53.188;8.696;2022-11-13T13:13:53;15.70;99.90
16846;DHT22;8539;53.188;8.696;2022-11-13T13:16:25;15.80;99.90
16846;DHT22;8539;53.188;8.696;2022-11-13T13:18:52;16.10;99.90
16846;DHT22;8539;53.188;8.696;2022-11-13T13:21:19;16.30;99.90
16846;DHT22;8539;53.188;8.696;2022-11-13T13:23:48;16.20;99.90
16846;DHT22;8539;53.188;8.696;2022-11-13T13:26:23;16.00;99.90
16846;DHT22;8539;53.188;8.696;2022-11-13T13:28:55;16.20;99.90
16846;DHT22;8539;53.188;8.696;2022-11-13T13:34:28;17.00;99.90
16846;DHT22;8539;53.188;8.696;2022-11-13T13:37:42;17.00;99.90
16846;DHT22;8539;53.188;8.696;2022-11-13T13:40:34;17.10;99.90
16846;DHT22;8539;53.188;8.696;2022-11-13T13:46:03;17.50;99.80
16846;DHT22;8539;53.188;8.696;2022-11-13T13:48:37;17.80;99.60
16846;DHT22;8539;53.188;8.696;2022-11-13T13:51:56;17.70;99.40
16846;DHT22;8539;53.188;8.696;2022-11-13T13:53:59;17.70;99.10
16846;DHT22;8539;53.188;8.696;2022-11-13T13:56:26;17.70;98.90
16846;DHT22;8539;53.188;8.696;2022-11-13T13:58:55;17.60;98.70
16846;DHT22;8539;53.188;8.696;2022-11-13T14:01:30;17.40;98.50
16846;DHT22;8539;53.188;8.696;2022-11-13T14:04:17;17.30;98.60
16846;DHT22;8539;53.188;8.696;2022-11-13T14:06:58;17.30;98.60
16846;DHT22;8539;53.188;8.696;2022-11-13T14:09:35;17.20;98.80
16846;DHT22;8539;53.188;8.696;2022-11-13T14:12:21;17.10;98.80
16846;DHT22;8539;53.188;8.696;2022-11-13T14:14:48;16.70;99.00
16846;DHT22;8539;53.188;8.696;2022-11-13T14:17:22;16.30;99.20
16846;DHT22;8539;53.188;8.696;2022-11-13T14:19:55;15.90;99.30
16846;DHT22;8539;53.188;8.696;2022-11-13T14:22:25;15.30;99.50
16846;DHT22;8539;53.188;8.696;2022-11-13T14:25:03;14.70;99.60
16846;DHT22;8539;53.188;8.696;2022-11-13T14:27:30;13.90;99.70
16846;DHT22;8539;53.188;8.696;2022-11-13T14:29:59;13.50;99.80
16846;DHT22;8539;53.188;8.696;2022-11-13T14:32:37;13.10;99.90
16846;DHT22;8539;53.188;8.696;2022-11-13T14:35:17;12.60;99.90
16846;DHT22;8539;53.188;8.696;2022-11-13T14:37:45;12.20;99.90
16846;DHT22;8539;53.188;8.696;2022-11-13T14:43:00;11.80;99.90
16846;DHT22;8539;53.188;8.696;2022-11-13T14:45:40;11.50;99.90
16846;DHT22;8539;53.188;8.696;2022-11-13T14:48:58;11.10;99.90
16846;DHT22;8539;53.188;8.696;2022-11-13T14:57:58;10.40;99.90
16846;DHT22;8539;53.188;8.696;2022-11-13T15:00:31;10.20;99.90
16846;DHT22;8539;53.188;8.696;2022-11-13T15:03:06;10.10;99.90
16846;DHT22;8539;53.188;8.696;2022-11-13T15:09:49;9.70;99.90
16846;DHT22;8539;53.188;8.696;2022-11-13T15:12:15;9.60;99.90
16846;DHT22;8539;53.188;8.696;2022-11-13T15:14:41;9.30;99.90
16846;DHT22;8539;53.188;8.696;2022-11-13T15:17:13;9.20;99.90
16846;DHT22;8539;53.188;8.696;2022-11-13T15:19:40;8.90;99.90
16846;DHT22;8539;53.188;8.696;2022-11-13T15:22:12;8.70;99.90
16846;DHT22;8539;53.188;8.696;2022-11-13T15:24:39;8.40;99.90
16846;DHT22;8539;53.188;8.696;2022-11-13T15:27:08;8.20;99.90
16846;DHT22;8539;53.188;8.696;2022-11-13T15:29:37;8.00;99.90
16846;DHT22;8539;53.188;8.696;2022-11-13T15:32:03;7.90;99.90
16846;DHT22;8539;53.188;8.696;2022-11-13T15:34:30;7.70;99.90
16846;DHT22;8539;53.188;8.696;2022-11-13T15:36:56;7.60;99.90
16846;DHT22;8539;53.188;8.696;2022-11-13T15:39:21;7.40;99.90
16846;DHT22;8539;53.188;8.696;2022-11-13T15:41:47;7.30;99.90
16846;DHT22;8539;53.188;8.696;2022-11-13T15:44:14;7.20;99.90
16846;DHT22;8539;53.188;8.696;2022-11-13T15:46:40;7.20;99.90
16846;DHT22;8539;53.188;8.696;2022-11-13T15:49:06;7.10;99.90
16846;DHT22;8539;53.188;8.696;2022-11-13T15:51:41;7.10;99.90
16846;DHT22;8539;53.188;8.696;2022-11-13T15:54:19;7.00;99.90
16846;DHT22;8539;53.188;8.696;2022-11-13T15:56:47;7.00;99.90
16846;DHT22;8539;53.188;8.696;2022-11-13T15:59:13;6.90;99.90
16846;DHT22;8539;53.188;8.696;2022-11-13T16:01:40;6.90;99.90
16846;DHT22;8539;53.188;8.696;2022-11-13T16:04:07;6.90;99.90
16846;DHT22;8539;53.188;8.696;2022-11-13T16:06:33;6.90;99.90
16846;DHT22;8539;53.188;8.696;2022-11-13T16:09:01;6.90;99.90
16846;DHT22;8539;53.188;8.696;2022-11-13T16:11:30;6.90;99.90
16846;DHT22;8539;53.188;8.696;2022-11-13T16:13:56;6.90;99.90
16846;DHT22;8539;53.188;8.696;2022-11-13T16:16:25;6.90;99.90
16846;DHT22;8539;53.188;8.696;2022-11-13T16:18:52;6.90;99.90
16846;DHT22;8539;53.188;8.696;2022-11-13T16:21:19;6.90;99.90
16846;DHT22;8539;53.188;8.696;2022-11-13T16:23:45;6.90;99.90
16846;DHT22;8539;53.188;8.696;2022-11-13T16:26:20;6.90;99.90
16846;DHT22;8539;53.188;8.696;2022-11-13T16:28:49;6.90;99.90
16846;DHT22;8539;53.188;8.696;2022-11-13T16:31:18;6.90;99.90
16846;DHT22;8539;53.188;8.696;2022-11-13T16:33:44;6.90;99.90
16846;DHT22;8539;53.188;8.696;2022-11-13T16:36:17;6.90;99.90
16846;DHT22;8539;53.188;8.696;2022-11-13T16:38:44;6.90;99.90
16846;DHT22;8539;53.188;8.696;2022-11-13T16:41:10;6.90;99.90
16846;DHT22;8539;53.188;8.696;2022-11-13T16:43:38;6.90;99.90
16846;DHT22;8539;53.188;8.696;2022-11-13T16:46:33;6.90;99.90
16846;DHT22;8539;53.188;8.696;2022-11-13T16:48:59;6.90;99.90
16846;DHT22;8539;53.188;8.696;2022-11-13T16:51:26;6.90;99.90
16846;DHT22;8539;53.188;8.696;2022-11-13T16:53:52;6.90;99.90
16846;DHT22;8539;53.188;8.696;2022-11-13T16:56:24;6.90;99.90
16846;DHT22;8539;53.188;8.696;2022-11-13T16:58:57;7.00;99.90
16846;DHT22;8539;53.188;8.696;2022-11-13T17:01:24;7.00;99.90
16846;DHT22;8539;53.188;8.696;2022-11-13T17:03:51;7.00;99.90
16846;DHT22;8539;53.188;8.696;2022-11-13T17:06:28;7.00;99.90
16846;DHT22;8539;53.188;8.696;2022-11-13T17:08:56;7.00;99.90
16846;DHT22;8539;53.188;8.696;2022-11-13T17:11:24;7.00;99.90
16846;DHT22;8539;53.188;8.696;2022-11-13T17:13:58;7.00;99.90
16846;DHT22;8539;53.188;8.696;2022-11-13T17:16:26;7.00;99.90
16846;DHT22;8539;53.188;8.696;2022-11-13T17:18:53;7.00;99.90
16846;DHT22;8539;53.188;8.696;2022-11-13T17:21:21;7.00;99.90
16846;DHT22;8539;53.188;8.696;2022-11-13T17:23:47;7.10;99.90
16846;DHT22;8539;53.188;8.696;2022-11-13T17:26:18;7.10;99.90
16846;DHT22;8539;53.188;8.696;2022-11-13T17:28:44;7.10;99.90
16846;DHT22;8539;53.188;8.696;2022-11-13T17:31:10;7.10;99.90
16846;DHT22;8539;53.188;8.696;2022-11-13T17:33:37;7.10;99.90
16846;DHT22;8539;53.188;8.696;2022-11-13T17:36:05;7.10;99.90
16846;DHT22;8539;53.188;8.696;2022-11-13T17:38:31;7.10;99.90
16846;DHT22;8539;53.188;8.696;2022-11-13T17:41:06;7.20;99.90
16846;DHT22;8539;53.188;8.696;2022-11-13T17:43:34;7.20;99.90
16846;DHT22;8539;53.188;8.696;2022-11-13T17:46:02;7.20;99.90
16846;DHT22;8539;53.188;8.696;2022-11-13T17:48:32;7.20;99.90
16846;DHT22;8539;53.188;8.696;2022-11-13T17:51:00;7.20;99.90
16846;DHT22;8539;53.188;8.696;2022-11-13T17:53:27;7.20;99.90
16846;DHT22;8539;53.188;8.696;2022-11-13T17:55:54;7.20;99.90
16846;DHT22;8539;53.188;8.696;2022-11-13T17:58:24;7.30;99.90
16846;DHT22;8539;53.188;8.696;2022-11-13T18:00:52;7.20;99.90
16846;DHT22;8539;53.188;8.696;2022-11-13T18:03:21;7.20;99.90
16846;DHT22;8539;53.188;8.696;2022-11-13T18:05:47;7.20;99.90
16846;DHT22;8539;53.188;8.696;2022-11-13T18:08:13;7.20;99.90
16846;DHT22;8539;53.188;8.696;2022-11-13T18:10:40;7.30;99.90
16846;DHT22;8539;53.188;8.696;2022-11-13T18:13:07;7.30;99.90
16846;DHT22;8539;53.188;8.696;2022-11-13T18:15:36;7.30;99.90
16846;DHT22;8539;53.188;8.696;2022-11-13T18:18:04;7.50;99.90
16846;DHT22;8539;53.188;8.696;2022-11-13T18:20:31;7.30;99.90
16846;DHT22;8539;53.188;8.696;2022-11-13T18:23:02;7.40;99.90
16846;DHT22;8539;53.188;8.696;2022-11-13T18:25:28;7.60;99.90
16846;DHT22;8539;53.188;8.696;2022-11-13T18:28:04;7.40;99.90
16846;DHT22;8539;53.188;8.696;2022-11-13T18:30:30;7.40;99.90
16846;DHT22;8539;53.188;8.696;2022-11-13T18:33:05;7.40;99.90
16846;DHT22;8539;53.188;8.696;2022-11-13T18:35:31;7.40;99.90
16846;DHT22;8539;53.188;8.696;2022-11-13T18:37:57;7.40;99.90
16846;DHT22;8539;53.188;8.696;2022-11-13T18:40:23;7.50;99.90
16846;DHT22;8539;53.188;8.696;2022-11-13T18:42:49;7.50;99.90
16846;DHT22;8539;53.188;8.696;2022-11-13T18:45:16;7.50;99.90
16846;DHT22;8539;53.188;8.696;2022-11-13T18:47:43;7.40;99.90
16846;DHT22;8539;53.188;8.696;2022-11-13T18:50:09;7.50;99.90
16846;DHT22;8539;53.188;8.696;2022-11-13T18:52:35;7.50;99.90
16846;DHT22;8539;53.188;8.696;2022-11-13T18:55:02;7.50;99.90
16846;DHT22;8539;53.188;8.696;2022-11-13T18:57:40;7.50;99.90
16846;DHT22;8539;53.188;8.696;2022-11-13T19:00:06;7.50;99.90
16846;DHT22;8539;53.188;8.696;2022-11-13T19:02:34;7.50;99.90
16846;DHT22;8539;53.188;8.696;2022-11-13T19:05:02;7.50;99.90
16846;DHT22;8539;53.188;8.696;2022-11-13T19:07:28;7.50;99.90
16846;DHT22;8539;53.188;8.696;2022-11-13T19:09:54;7.50;99.90
16846;DHT22;8539;53.188;8.696;2022-11-13T19:12:20;7.50;99.90
16846;DHT22;8539;53.188;8.696;2022-11-13T19:14:46;7.50;99.90
16846;DHT22;8539;53.188;8.696;2022-11-13T19:17:17;7.50;99.90
16846;DHT22;8539;53.188;8.696;2022-11-13T19:19:43;7.50;99.90
16846;DHT22;8539;53.188;8.696;2022-11-13T19:22:09;7.50;99.90
16846;DHT22;8539;53.188;8.696;2022-11-13T19:24:35;7.40;99.90
16846;DHT22;8539;53.188;8.696;2022-11-13T19:27:01;7.40;99.90
16846;DHT22;8539;53.188;8.696;2022-11-13T19:29:27;7.50;99.90
16846;DHT22;8539;53.188;8.696;2022-11-13T19:31:54;7.50;99.90
16846;DHT22;8539;53.188;8.696;2022-11-13T19:34:30;7.50;99.90
16846;DHT22;8539;53.188;8.696;2022-11-13T19:37:00;7.50;99.90
16846;DHT22;8539;53.188;8.696;2022-11-13T19:39:36;7.40;99.90
16846;DHT22;8539;53.188;8.696;2022-11-13T19:44:44;7.30;99.90
16846;DHT22;8539;53.188;8.696;2022-11-13T19:47:16;8.10;99.90
16846;DHT22;8539;53.188;8.696;2022-11-13T19:50:05;7.90;99.90
16846;DHT22;8539;53.188;8.696;2022-11-13T19:52:31;7.50;99.90
16846;DHT22;8539;53.188;8.696;2022-11-13T19:55:00;7.50;99.90
16846;DHT22;8539;53.188;8.696;2022-11-13T19:57:29;7.60;99.90
16846;DHT22;8539;53.188;8.696;2022-11-13T19:59:58;8.00;99.90
16846;DHT22;8539;53.188;8.696;2022-11-13T20:02:26;7.60;99.90
16846;DHT22;8539;53.188;8.696;2022-11-13T20:04:55;7.60;99.90
16846;DHT22;8539;53.188;8.696;2022-11-13T20:07:21;7.60;99.90
16846;DHT22;8539;53.188;8.696;2022-11-13T20:09:47;7.70;99.90
16846;DHT22;8539;53.188;8.696;2022-11-13T20:12:13;7.70;99.90
16846;DHT22;8539;53.188;8.696;2022-11-13T20:14:39;7.70;99.90
16846;DHT22;8539;53.188;8.696;2022-11-13T20:17:05;7.70;99.90
16846;DHT22;8539;53.188;8.696;2022-11-13T20:19:31;7.70;99.90
16846;DHT22;8539;53.188;8.696;2022-11-13T20:21:57;7.70;99.90
16846;DHT22;8539;53.188;8.696;2022-11-13T20:24:24;7.70;99.90
16846;DHT22;8539;53.188;8.696;2022-11-13T20:26:50;7.70;99.90
16846;DHT22;8539;53.188;8.696;2022-11-13T20:29:16;7.70;99.90
16846;DHT22;8539;53.188;8.696;2022-11-13T20:31:42;7.80;99.90
16846;DHT22;8539;53.188;8.696;2022-11-13T20:34:08;7.90;99.90
16846;DHT22;8539;53.188;8.696;2022-11-13T20:36:34;7.90;99.90
16846;DHT22;8539;53.188;8.696;2022-11-13T20:39:00;7.90;99.90
16846;DHT22;8539;53.188;8.696;2022-11-13T20:41:26;7.90;99.90
16846;DHT22;8539;53.188;8.696;2022-11-13T20:43:53;7.90;99.90
16846;DHT22;8539;53.188;8.696;2022-11-13T20:46:26;7.90;99.90
16846;DHT22;8539;53.188;8.696;2022-11-13T20:48:52;8.00;99.90
16846;DHT22;8539;53.188;8.696;2022-11-13T20:51:21;8.00;99.90
16846;DHT22;8539;53.188;8.696;2022-11-13T20:53:47;8.00;99.90
16846;DHT22;8539;53.188;8.696;2022-11-13T20:56:14;8.00;99.90
16846;DHT22;8539;53.188;8.696;2022-11-13T20:58:41;8.00;99.90
16846;DHT22;8539;53.188;8.696;2022-11-13T21:01:12;8.00;99.90
16846;DHT22;8539;53.188;8.696;2022-11-13T21:03:40;8.00;99.90
16846;DHT22;8539;53.188;8.696;2022-11-13T21:06:08;8.00;99.90
16846;DHT22;8539;53.188;8.696;2022-11-13T21:08:34;8.00;99.90
16846;DHT22;8539;53.188;8.696;2022-11-13T21:11:01;8.00;99.90
16846;DHT22;8539;53.188;8.696;2022-11-13T21:13:28;8.00;99.90
16846;DHT22;8539;53.188;8.696;2022-11-13T21:15:54;8.10;99.90
16846;DHT22;8539;53.188;8.696;2022-11-13T21:18:20;8.10;99.90
16846;DHT22;8539;53.188;8.696;2022-11-13T21:20:46;8.10;99.90
16846;DHT22;8539;53.188;8.696;2022-11-13T21:23:13;8.10;99.90
16846;DHT22;8539;53.188;8.696;2022-11-13T21:25:39;8.10;99.90
16846;DHT22;8539;53.188;8.696;2022-11-13T21:28:06;8.20;99.90
16846;DHT22;8539;53.188;8.696;2022-11-13T21:30:32;8.10;99.90
16846;DHT22;8539;53.188;8.696;2022-11-13T21:32:59;8.10;99.90
16846;DHT22;8539;53.188;8.696;2022-11-13T21:35:26;8.10;99.90
16846;DHT22;8539;53.188;8.696;2022-11-13T21:37:53;8.10;99.90
16846;DHT22;8539;53.188;8.696;2022-11-13T21:40:20;8.10;99.90
16846;DHT22;8539;53.188;8.696;2022-11-13T21:42:46;8.10;99.90
16846;DHT22;8539;53.188;8.696;2022-11-13T21:45:13;8.10;99.90
16846;DHT22;8539;53.188;8.696;2022-11-13T21:47:39;8.10;99.90
16846;DHT22;8539;53.188;8.696;2022-11-13T21:50:05;8.10;99.90
16846;DHT22;8539;53.188;8.696;2022-11-13T21:52:31;8.10;99.90
16846;DHT22;8539;53.188;8.696;2022-11-13T21:54:57;8.10;99.90
16846;DHT22;8539;53.188;8.696;2022-11-13T21:57:23;8.10;99.90
16846;DHT22;8539;53.188;8.696;2022-11-13T21:59:51;8.10;99.90
16846;DHT22;8539;53.188;8.696;2022-11-13T22:02:17;8.00;99.90
16846;DHT22;8539;53.188;8.696;2022-11-13T22:04:45;8.10;99.90
16846;DHT22;8539;53.188;8.696;2022-11-13T22:07:11;8.10;99.90
16846;DHT22;8539;53.188;8.696;2022-11-13T22:09:37;8.10;99.90
16846;DHT22;8539;53.188;8.696;2022-11-13T22:12:04;8.10;99.90
16846;DHT22;8539;53.188;8.696;2022-11-13T22:14:29;8.10;99.90
16846;DHT22;8539;53.188;8.696;2022-11-13T22:16:55;8.10;99.90
16846;DHT22;8539;53.188;8.696;2022-11-13T22:19:21;8.10;99.90
16846;DHT22;8539;53.188;8.696;2022-11-13T22:21:47;8.10;99.90
16846;DHT22;8539;53.188;8.696;2022-11-13T22:24:14;8.20;99.90
16846;DHT22;8539;53.188;8.696;2022-11-13T22:26:46;8.20;99.90